Terminal Aerodrome Forecast
Issued by NWS Wilmington, OH

Home | Current Version | Previous Version | Text Only | Print | Product List | Glossary On
Versions: 1 2 3 4 5 6 7 8 9 10 11 12 13 14 15 16 17 18 19 20 21 22 23
947
FTUS41 KILN 211135
TAFILN
TAF
KILN 211135Z 2112/2212 00000KT 4SM BR SCT050
      TEMPO 2112/2113 2SM BR
     FM211300 13004KT P6SM BKN250
     FM211500 13004KT P6SM SCT050 BKN250
     FM212300 07006KT P6SM SCT250
     FM220600 00000KT 3SM BR SCT250=

USA.gov is the U.S. government's official web portal to all federal, state and local government web resources and services.